Time;durP1;ratioP1;P1;durP2;ratioP2;P2;SDS_P1;SDS_P2;PMS_P1;PMS_P2;Temp;Humidity;BMP_temperature;BMP_pressure;BME280_temperature;BME280_humidity;BME280_pressure;Samples;Min_cycle;Max_cycle;Signal;HPM_P1;HPM_P2
2022/09/21 00:00:51;;;;;;;1.92;1.33;;;9.70;99.90;;;;;;5071979;28;20021;-66
2022/09/21 00:03:17;;;;;;;2.42;1.45;;;9.60;99.90;;;;;;5073802;28;20034;-66
2022/09/21 00:05:42;;;;;;;2.70;1.60;;;9.60;99.90;;;;;;5074217;28;20055;-66
2022/09/21 00:08:11;;;;;;;1.58;1.35;;;9.60;99.90;;;;;;5072840;28;20036;-66
2022/09/21 00:10:38;;;;;;;2.30;1.40;;;9.60;99.90;;;;;;5073843;28;20021;-66
2022/09/21 00:13:04;;;;;;;2.42;1.38;;;9.60;99.90;;;;;;5072451;28;20017;-67
2022/09/21 00:15:31;;;;;;;2.22;1.13;;;9.60;99.90;;;;;;5071940;28;20024;-68
2022/09/21 00:17:58;;;;;;;3.15;1.50;;;9.70;99.90;;;;;;5073433;28;20049;-67
2022/09/21 00:20:25;;;;;;;6.63;1.70;;;9.60;99.90;;;;;;5073817;28;20055;-68
2022/09/21 00:22:51;;;;;;;2.75;1.42;;;9.70;99.90;;;;;;5073211;28;20464;-67
2022/09/21 00:25:18;;;;;;;2.55;1.52;;;9.60;99.90;;;;;;5073542;28;20062;-67
2022/09/21 00:27:46;;;;;;;5.60;1.40;;;9.60;99.90;;;;;;5061064;28;20123;-69
2022/09/21 00:30:12;;;;;;;1.58;1.27;;;9.70;99.90;;;;;;5052585;28;20027;-68
2022/09/21 00:32:40;;;;;;;2.85;1.50;;;9.70;99.90;;;;;;5053262;28;20107;-68
2022/09/21 00:35:07;;;;;;;2.45;1.10;;;9.70;99.90;;;;;;5052880;28;20028;-68
2022/09/21 00:37:33;;;;;;;4.63;1.30;;;9.60;99.90;;;;;;5051308;28;20485;-68
2022/09/21 00:39:59;;;;;;;3.35;1.50;;;9.60;99.90;;;;;;5051663;28;20075;-68
2022/09/21 00:42:29;;;;;;;4.45;1.45;;;9.50;99.90;;;;;;5052793;28;20576;-68
2022/09/21 00:44:55;;;;;;;4.93;1.63;;;9.50;99.90;;;;;;5052468;28;20040;-68
2022/09/21 00:47:29;;;;;;;1.85;1.30;;;9.50;99.90;;;;;;5052784;28;20104;-69
2022/09/21 00:49:57;;;;;;;1.98;1.05;;;9.50;99.90;;;;;;5052549;28;20363;-69
2022/09/21 00:52:25;;;;;;;5.05;1.38;;;9.50;99.90;;;;;;5052662;28;20037;-68
2022/09/21 00:55:04;;;;;;;3.20;1.45;;;9.40;99.90;;;;;;5053194;28;20013;-69
2022/09/21 00:57:31;;;;;;;4.40;1.48;;;9.40;99.90;;;;;;5052075;28;20025;-68
2022/09/21 01:00:00;;;;;;;1.88;1.35;;;9.40;99.90;;;;;;5052997;28;20105;-68
2022/09/21 01:02:27;;;;;;;2.70;1.38;;;9.50;99.90;;;;;;5052598;28;20029;-69
2022/09/21 01:04:54;;;;;;;6.00;1.50;;;9.40;99.90;;;;;;5052270;28;20032;-68
2022/09/21 01:07:24;;;;;;;3.25;1.42;;;9.40;99.90;;;;;;5052358;28;20025;-68
2022/09/21 01:09:53;;;;;;;3.33;1.73;;;9.40;99.90;;;;;;5053131;28;20044;-68
2022/09/21 01:12:34;;;;;;;3.83;1.52;;;9.40;99.90;;;;;;5051985;28;20386;-69
2022/09/21 01:15:22;;;;;;;5.57;1.23;;;9.30;99.90;;;;;;5052925;28;20036;-68
2022/09/21 01:18:15;;;;;;;3.08;1.30;;;9.30;99.90;;;;;;5052613;28;20044;-68
2022/09/21 01:21:05;;;;;;;1.98;1.30;;;9.20;99.90;;;;;;5052762;28;20422;-69
2022/09/21 01:23:47;;;;;;;2.25;1.40;;;9.10;99.90;;;;;;5052293;28;20033;-66
2022/09/21 01:27:00;;;;;;;2.60;1.60;;;9.00;99.90;;;;;;5051455;28;20063;-66
2022/09/21 01:29:42;;;;;;;4.43;1.60;;;8.90;99.90;;;;;;5050059;28;20033;-66
2022/09/21 01:32:17;;;;;;;4.28;1.77;;;8.80;99.90;;;;;;5050246;28;20489;-66
2022/09/21 01:34:58;;;;;;;4.78;1.45;;;8.80;99.90;;;;;;5052158;28;20028;-66
2022/09/21 01:37:37;;;;;;;5.95;1.70;;;8.70;99.90;;;;;;5051992;28;20346;-66
2022/09/21 01:40:10;;;;;;;1.77;1.50;;;8.70;99.90;;;;;;5051555;28;20025;-66
2022/09/21 01:42:39;;;;;;;1.48;1.27;;;8.60;99.90;;;;;;5052114;28;20048;-66
2022/09/21 01:45:07;;;;;;;4.55;1.33;;;8.60;99.90;;;;;;5052073;28;20032;-66
2022/09/21 01:47:38;;;;;;;3.33;1.60;;;8.50;99.90;;;;;;5051596;28;20052;-65
2022/09/21 01:50:09;;;;;;;2.35;1.30;;;8.50;99.90;;;;;;5052076;28;20071;-66
2022/09/21 01:53:01;;;;;;;4.20;1.75;;;8.40;99.90;;;;;;5051757;28;20041;-66
2022/09/21 01:55:34;;;;;;;2.40;1.45;;;8.40;99.90;;;;;;5050108;28;20130;-66
2022/09/21 01:58:07;;;;;;;3.70;1.40;;;8.30;99.90;;;;;;5051865;28;20014;-66
2022/09/21 02:00:34;;;;;;;3.55;1.40;;;8.30;99.90;;;;;;5051388;28;20029;-66
2022/09/21 02:03:20;;;;;;;3.75;1.40;;;8.30;99.90;;;;;;5051588;28;20473;-66
2022/09/21 02:05:46;;;;;;;2.55;1.45;;;8.20;99.90;;;;;;5051911;28;20481;-66
2022/09/21 02:08:12;;;;;;;3.17;1.52;;;8.20;99.90;;;;;;5050619;28;20028;-67
2022/09/21 02:10:49;;;;;;;2.38;1.60;;;8.10;99.90;;;;;;5051808;28;20025;-66
2022/09/21 02:13:17;;;;;;;4.20;1.70;;;8.10;99.90;;;;;;5051232;28;20151;-66
2022/09/21 02:16:06;;;;;;;3.75;2.00;;;8.10;99.90;;;;;;5051034;28;20033;-66
2022/09/21 02:18:56;;;;;;;3.47;1.50;;;8.00;99.90;;;;;;5049863;28;20029;-66
2022/09/21 02:21:33;;;;;;;2.65;1.55;;;8.00;99.90;;;;;;5050670;28;20025;-66
2022/09/21 02:23:59;;;;;;;1.77;1.20;;;8.00;99.90;;;;;;5051499;28;20115;-66
2022/09/21 02:26:31;;;;;;;1.20;1.10;;;7.90;99.90;;;;;;5049672;28;20041;-66
2022/09/21 02:29:03;;;;;;;2.95;1.15;;;7.80;99.90;;;;;;5047716;28;20032;-66
2022/09/21 02:31:40;;;;;;;2.03;1.10;;;7.80;99.90;;;;;;5048692;28;20024;-66
2022/09/21 02:34:35;;;;;;;2.67;0.90;;;7.80;99.90;;;;;;5050861;28;20021;-67
2022/09/21 02:37:30;;;;;;;3.53;1.10;;;7.70;99.90;;;;;;5046533;28;20071;-68
2022/09/21 02:40:02;;;;;;;2.00;1.08;;;7.70;99.90;;;;;;5051516;28;20036;-68
2022/09/21 02:42:33;;;;;;;2.38;1.17;;;7.60;99.90;;;;;;5050361;28;20021;-68
2022/09/21 02:45:19;;;;;;;3.70;1.27;;;7.60;99.90;;;;;;5051453;28;20061;-69
2022/09/21 02:47:59;;;;;;;0.80;0.80;;;7.60;99.90;;;;;;5051395;28;20032;-68
2022/09/21 02:50:50;;;;;;;1.48;0.90;;;7.60;99.90;;;;;;5050416;28;20438;-67
2022/09/21 02:53:19;;;;;;;;;;;7.50;99.90;;;;;;5048575;28;20045;-66
2022/09/21 02:55:48;;;;;;;2.85;1.08;;;7.40;99.90;;;;;;5050366;28;19908;-66
2022/09/21 02:58:15;;;;;;;1.83;1.00;;;7.30;99.90;;;;;;5050135;28;20130;-65
2022/09/21 03:00:41;;;;;;;1.85;1.10;;;7.30;99.90;;;;;;5051046;28;20021;-68
2022/09/21 03:03:18;;;;;;;1.58;0.85;;;7.20;99.90;;;;;;5050456;28;20028;-68
2022/09/21 03:05:47;;;;;;;1.00;0.88;;;7.20;99.90;;;;;;5049648;28;20048;-66
2022/09/21 03:08:13;;;;;;;0.52;0.50;;;7.10;99.90;;;;;;5049042;28;20036;-68
2022/09/21 03:10:39;;;;;;;0.70;0.60;;;7.10;99.90;;;;;;5050153;28;20024;-67
2022/09/21 03:13:07;;;;;;;0.70;0.70;;;7.00;99.90;;;;;;5050442;28;20025;-67
2022/09/21 03:15:34;;;;;;;1.73;0.75;;;7.00;99.90;;;;;;5049749;28;20424;-68
2022/09/21 03:18:00;;;;;;;0.60;0.60;;;6.90;99.90;;;;;;5050075;28;20025;-67
2022/09/21 03:20:26;;;;;;;0.73;0.70;;;6.80;99.90;;;;;;5050889;28;20055;-68
2022/09/21 03:22:51;;;;;;;4.80;0.90;;;6.80;99.90;;;;;;5049597;28;20541;-68
2022/09/21 03:25:17;;;;;;;1.48;0.63;;;6.70;99.90;;;;;;5050258;28;20025;-68
2022/09/21 03:27:42;;;;;;;0.82;0.70;;;6.70;99.90;;;;;;5050888;28;20033;-68
2022/09/21 03:30:09;;;;;;;0.70;0.70;;;6.60;99.90;;;;;;5050901;28;20027;-68
2022/09/21 03:32:34;;;;;;;0.77;0.77;;;6.60;99.90;;;;;;5050578;28;20107;-66
2022/09/21 03:35:00;;;;;;;1.23;0.60;;;6.60;99.90;;;;;;5049901;28;20105;-67
2022/09/21 03:37:25;;;;;;;0.70;0.70;;;6.60;99.90;;;;;;5049235;28;20033;-68
2022/09/21 03:39:51;;;;;;;1.40;0.80;;;6.50;99.90;;;;;;5048927;28;20043;-67
2022/09/21 03:42:16;;;;;;;0.63;0.60;;;6.50;99.90;;;;;;5050611;28;20025;-68
2022/09/21 03:44:42;;;;;;;0.82;0.80;;;6.50;99.90;;;;;;5050706;28;20025;-65
2022/09/21 03:47:07;;;;;;;1.80;1.00;;;6.50;99.90;;;;;;5049976;28;20017;-65
2022/09/21 03:49:33;;;;;;;0.65;0.65;;;6.50;99.90;;;;;;5049332;28;20025;-65
2022/09/21 03:51:59;;;;;;;1.13;1.00;;;6.50;99.90;;;;;;5049388;28;20183;-65
2022/09/21 03:54:25;;;;;;;0.98;0.93;;;6.40;99.90;;;;;;5053142;28;20021;-65
2022/09/21 03:56:51;;;;;;;2.35;0.85;;;6.40;99.90;;;;;;5054280;28;20148;-65
2022/09/21 03:59:16;;;;;;;2.75;1.00;;;6.40;99.90;;;;;;5052558;28;20465;-65
2022/09/21 04:01:42;;;;;;;0.75;0.70;;;6.40;99.90;;;;;;5053728;28;20709;-65
2022/09/21 04:04:09;;;;;;;0.70;0.70;;;6.30;99.90;;;;;;5054058;28;20465;-66
2022/09/21 04:06:34;;;;;;;0.80;0.80;;;6.30;99.90;;;;;;5054011;28;20029;-66
2022/09/21 04:09:02;;;;;;;1.20;0.90;;;6.30;99.90;;;;;;5053466;28;20032;-66
2022/09/21 04:11:28;;;;;;;2.53;0.82;;;6.30;99.90;;;;;;5054274;28;20029;-66
2022/09/21 04:13:57;;;;;;;0.95;0.90;;;6.30;99.90;;;;;;5054005;28;20291;-66
2022/09/21 04:16:24;;;;;;;1.25;0.90;;;6.20;99.90;;;;;;5053905;28;20025;-66
2022/09/21 04:18:50;;;;;;;1.20;1.10;;;6.20;99.90;;;;;;5052680;28;20013;-66
2022/09/21 04:21:17;;;;;;;1.20;0.93;;;6.20;99.90;;;;;;5053195;28;20029;-67
2022/09/21 04:23:43;;;;;;;1.15;1.00;;;6.10;99.90;;;;;;5053889;28;20048;-67
2022/09/21 04:26:21;;;;;;;0.93;0.93;;;6.10;99.90;;;;;;5052011;28;20065;-67
2022/09/21 04:28:47;;;;;;;2.22;1.05;;;6.10;99.90;;;;;;5053133;28;20037;-67
2022/09/21 04:31:13;;;;;;;1.10;0.98;;;6.10;99.90;;;;;;5051984;28;20032;-66
2022/09/21 04:33:38;;;;;;;1.05;0.93;;;6.10;99.90;;;;;;5052283;28;20044;-65
2022/09/21 04:36:05;;;;;;;1.25;1.08;;;6.10;99.90;;;;;;5052818;28;20025;-66
2022/09/21 04:38:31;;;;;;;1.33;1.00;;;6.00;99.90;;;;;;5050755;28;20393;-67
2022/09/21 04:40:57;;;;;;;2.38;1.10;;;6.10;99.90;;;;;;5052757;28;20029;-67
2022/09/21 04:43:24;;;;;;;2.10;1.27;;;6.00;99.90;;;;;;5051935;28;20675;-67
2022/09/21 04:45:49;;;;;;;2.08;1.13;;;5.90;99.90;;;;;;5052693;28;20044;-68
2022/09/21 04:48:15;;;;;;;2.05;1.30;;;5.90;99.90;;;;;;5052958;28;20025;-68
2022/09/21 04:50:41;;;;;;;3.17;1.30;;;5.90;99.90;;;;;;5053241;28;20389;-68
2022/09/21 04:53:07;;;;;;;2.05;1.27;;;5.80;99.90;;;;;;5072730;28;20040;-68
2022/09/21 04:55:32;;;;;;;1.30;1.08;;;5.80;99.90;;;;;;5073336;28;20029;-68
2022/09/21 04:57:58;;;;;;;2.15;1.40;;;5.80;99.90;;;;;;5055433;28;20025;-66
2022/09/21 05:00:25;;;;;;;2.85;1.20;;;5.80;99.90;;;;;;5052803;28;20533;-66
2022/09/21 05:02:51;;;;;;;1.38;1.27;;;5.70;99.90;;;;;;5051719;28;20017;-67
2022/09/21 05:05:16;;;;;;;2.17;1.40;;;5.70;99.90;;;;;;5050720;28;20087;-67
2022/09/21 05:07:42;;;;;;;1.80;1.15;;;5.70;99.90;;;;;;5046749;28;20013;-67
2022/09/21 05:10:10;;;;;;;1.88;1.20;;;5.60;99.90;;;;;;5052097;28;20029;-67
2022/09/21 05:12:35;;;;;;;4.38;1.15;;;5.60;99.90;;;;;;5051746;28;20021;-65
2022/09/21 05:15:01;;;;;;;1.95;1.23;;;5.60;99.90;;;;;;5061074;28;20354;-68
2022/09/21 05:17:27;;;;;;;2.90;1.10;;;5.60;99.90;;;;;;5051143;28;20017;-67
2022/09/21 05:19:53;;;;;;;1.73;0.98;;;5.50;99.90;;;;;;5053247;28;20025;-68
2022/09/21 05:22:19;;;;;;;1.15;1.00;;;5.50;99.90;;;;;;5051558;28;20087;-68
2022/09/21 05:24:45;;;;;;;1.42;1.10;;;5.50;99.90;;;;;;5048136;28;20119;-67
2022/09/21 05:27:11;;;;;;;4.25;1.20;;;5.50;99.90;;;;;;5049901;28;20132;-67
2022/09/21 05:29:38;;;;;;;1.48;0.88;;;5.40;99.90;;;;;;5054163;28;20470;-68
2022/09/21 05:32:37;;;;;;;2.22;1.13;;;5.50;99.90;;;;;;5045476;28;20466;-66
2022/09/21 05:35:33;;;;;;;1.85;1.08;;;5.50;99.90;;;;;;5051285;28;20060;-66
2022/09/21 05:38:03;;;;;;;3.65;1.17;;;5.50;99.90;;;;;;5050598;28;20112;-67
2022/09/21 05:40:29;;;;;;;2.30;1.02;;;5.50;99.90;;;;;;5046654;28;20025;-67
2022/09/21 05:42:55;;;;;;;2.35;1.35;;;5.50;99.90;;;;;;5050924;28;20025;-67
2022/09/21 05:45:21;;;;;;;2.40;1.30;;;5.50;99.90;;;;;;5053937;28;20028;-66
2022/09/21 05:48:19;;;;;;;1.42;1.15;;;5.50;99.90;;;;;;5054400;28;20063;-67
2022/09/21 05:50:51;;;;;;;4.00;1.35;;;5.50;99.90;;;;;;5041801;28;20021;-67
2022/09/21 05:53:53;;;;;;;3.42;1.55;;;5.60;99.90;;;;;;5048383;28;20053;-66
2022/09/21 05:56:34;;;;;;;1.63;1.13;;;5.60;99.90;;;;;;5037720;28;20438;-66
2022/09/21 05:59:25;;;;;;;4.25;1.50;;;5.60;99.90;;;;;;5049541;28;20029;-67
2022/09/21 06:02:12;;;;;;;1.58;1.13;;;5.60;99.90;;;;;;5050475;28;20033;-67
2022/09/21 06:04:37;;;;;;;3.88;1.27;;;5.60;99.90;;;;;;5046728;28;20704;-67
2022/09/21 06:07:03;;;;;;;2.92;1.00;;;5.70;99.90;;;;;;5050258;28;20063;-65
2022/09/21 06:09:29;;;;;;;2.13;1.30;;;5.70;99.90;;;;;;5048918;28;20021;-64
2022/09/21 06:11:54;;;;;;;2.50;1.30;;;5.80;99.90;;;;;;5049285;28;20118;-65
2022/09/21 06:14:24;;;;;;;2.25;1.20;;;5.80;99.90;;;;;;5049662;28;20154;-65
2022/09/21 06:16:50;;;;;;;1.92;1.38;;;5.90;99.90;;;;;;5048436;28;20025;-65
2022/09/21 06:19:15;;;;;;;2.92;1.65;;;5.90;99.90;;;;;;5048571;28;20040;-67
2022/09/21 06:21:41;;;;;;;3.25;1.45;;;6.00;99.90;;;;;;5056347;28;20116;-66
2022/09/21 06:24:07;;;;;;;2.90;1.65;;;6.10;99.90;;;;;;5058434;28;20028;-64
2022/09/21 06:26:33;;;;;;;3.72;1.80;;;6.10;99.90;;;;;;5049875;28;20374;-65
2022/09/21 06:28:59;;;;;;;2.95;1.85;;;6.20;99.90;;;;;;5050168;28;20427;-66
2022/09/21 06:31:26;;;;;;;2.40;1.40;;;6.30;99.90;;;;;;5055559;28;20480;-67
2022/09/21 06:33:51;;;;;;;3.92;1.83;;;6.40;99.90;;;;;;5049682;28;20016;-68
2022/09/21 06:36:17;;;;;;;3.70;1.83;;;6.50;99.90;;;;;;5050708;28;20168;-67
2022/09/21 06:38:43;;;;;;;3.38;1.70;;;6.50;99.90;;;;;;5050238;28;20028;-67
2022/09/21 06:41:08;;;;;;;3.53;1.60;;;6.60;99.90;;;;;;5051567;28;20499;-67
2022/09/21 06:43:34;;;;;;;4.10;1.95;;;6.70;99.90;;;;;;5050766;28;20021;-67
2022/09/21 06:46:01;;;;;;;3.22;1.73;;;6.70;99.90;;;;;;5049121;28;20041;-67
2022/09/21 06:48:28;;;;;;;2.58;1.70;;;6.80;99.90;;;;;;5048506;28;20021;-71
2022/09/21 06:51:04;;;;;;;3.45;1.75;;;6.80;99.90;;;;;;5048846;28;20035;-67
2022/09/21 06:53:31;;;;;;;2.45;1.50;;;6.90;99.90;;;;;;5052537;28;20048;-67
2022/09/21 06:56:03;;;;;;;2.25;1.58;;;7.00;99.90;;;;;;5049618;28;20017;-70
2022/09/21 06:58:30;;;;;;;4.88;1.70;;;7.10;99.90;;;;;;5054356;28;20027;-68
2022/09/21 07:00:56;;;;;;;7.68;3.83;;;7.10;99.90;;;;;;5043160;28;20063;-68
2022/09/21 07:03:21;;;;;;;7.85;4.72;;;7.20;99.90;;;;;;5051706;28;20437;-70
2022/09/21 07:05:48;;;;;;;6.57;3.55;;;7.30;99.90;;;;;;5048953;28;20240;-70
2022/09/21 07:08:14;;;;;;;6.10;2.72;;;7.40;99.90;;;;;;5048922;28;20044;-68
2022/09/21 07:10:39;;;;;;;4.28;2.35;;;7.50;99.90;;;;;;5049318;28;20402;-68
2022/09/21 07:13:05;;;;;;;6.50;2.28;;;7.60;99.90;;;;;;5050723;28;20095;-67
2022/09/21 07:15:32;;;;;;;5.35;2.25;;;7.60;99.90;;;;;;5051139;28;20017;-68
2022/09/21 07:17:57;;;;;;;5.05;2.72;;;7.70;99.90;;;;;;5050479;28;20142;-68
2022/09/21 07:20:23;;;;;;;4.28;2.50;;;7.80;99.90;;;;;;5050882;28;20024;-67
2022/09/21 07:22:49;;;;;;;8.10;3.40;;;7.90;99.90;;;;;;5049899;28;20457;-68
2022/09/21 07:25:15;;;;;;;6.22;3.50;;;8.00;99.90;;;;;;5048591;28;20116;-70
2022/09/21 07:27:40;;;;;;;7.53;4.05;;;8.10;99.90;;;;;;5050104;28;20103;-67
2022/09/21 07:30:07;;;;;;;7.90;4.22;;;8.10;99.90;;;;;;5054764;28;20090;-69
2022/09/21 07:32:33;;;;;;;9.88;5.57;;;8.20;99.90;;;;;;5052985;28;20021;-68
2022/09/21 07:34:59;;;;;;;8.63;5.53;;;8.30;99.90;;;;;;5053538;28;20048;-69
2022/09/21 07:37:26;;;;;;;10.27;5.72;;;8.40;99.90;;;;;;5052848;28;20492;-67
2022/09/21 07:39:52;;;;;;;9.77;4.40;;;8.50;99.90;;;;;;5054615;28;20051;-68
2022/09/21 07:42:20;;;;;;;9.48;4.50;;;8.60;99.90;;;;;;5053135;28;20029;-68
2022/09/21 07:44:46;;;;;;;9.38;4.15;;;8.70;99.90;;;;;;5053827;28;20025;-70
2022/09/21 07:47:12;;;;;;;7.93;3.75;;;8.80;99.90;;;;;;5052939;28;20040;-70
2022/09/21 07:49:38;;;;;;;8.07;3.33;;;8.90;99.90;;;;;;5054491;28;20052;-68
2022/09/21 07:52:04;;;;;;;5.47;3.40;;;9.00;99.90;;;;;;5053379;28;20138;-68
2022/09/21 07:54:32;;;;;;;5.45;3.10;;;9.10;99.90;;;;;;5054294;28;20021;-70
2022/09/21 07:59:42;;;;;;;6.78;4.05;;;9.30;99.90;;;;;;5053912;28;20055;-70
2022/09/21 08:02:07;;;;;;;6.70;3.35;;;9.40;99.90;;;;;;5052493;28;20469;-71
2022/09/21 08:04:33;;;;;;;6.53;3.13;;;9.50;99.90;;;;;;5052938;28;20017;-69
2022/09/21 08:06:59;;;;;;;5.80;3.60;;;9.60;99.90;;;;;;5051928;28;20072;-70
2022/09/21 08:09:24;;;;;;;4.82;2.92;;;9.70;99.90;;;;;;5053644;28;20021;-71
2022/09/21 08:11:50;;;;;;;8.48;4.03;;;9.80;99.90;;;;;;5052551;28;20083;-70
2022/09/21 08:14:19;;;;;;;7.47;3.55;;;9.90;99.90;;;;;;5052924;28;20039;-71
2022/09/21 08:16:46;;;;;;;5.18;2.97;;;10.10;99.90;;;;;;5053761;28;20077;-71
2022/09/21 08:19:13;;;;;;;11.35;3.80;;;10.20;99.90;;;;;;5053473;28;20121;-71
2022/09/21 08:21:39;;;;;;;7.32;3.33;;;10.30;99.90;;;;;;5053445;28;20416;-69
2022/09/21 08:24:05;;;;;;;5.50;3.30;;;10.40;99.90;;;;;;5052001;28;20021;-69
2022/09/21 08:26:32;;;;;;;5.97;3.30;;;10.50;99.90;;;;;;5053519;28;20082;-71
2022/09/21 08:28:58;;;;;;;7.55;2.80;;;10.60;99.90;;;;;;5051716;28;20477;-69
2022/09/21 08:31:24;;;;;;;4.25;2.28;;;10.80;99.90;;;;;;5053478;28;20035;-71
2022/09/21 08:33:51;;;;;;;6.10;3.08;;;10.80;99.90;;;;;;5053637;28;20495;-68
2022/09/21 08:36:18;;;;;;;7.10;2.70;;;10.90;99.90;;;;;;5051758;28;20412;-70
2022/09/21 08:38:44;;;;;;;8.48;3.10;;;11.00;99.90;;;;;;5053346;28;20021;-69
2022/09/21 08:41:19;;;;;;;6.75;2.65;;;11.10;99.90;;;;;;5052613;28;20036;-70
2022/09/21 08:43:50;;;;;;;5.10;2.00;;;11.20;99.90;;;;;;5053343;28;20028;-70
2022/09/21 08:46:19;;;;;;;5.40;2.45;;;11.30;99.90;;;;;;5053120;28;20032;-71
2022/09/21 08:49:00;;;;;;;9.50;2.78;;;11.40;99.90;;;;;;5051422;28;20029;-70
2022/09/21 08:51:32;;;;;;;5.50;2.53;;;11.50;99.90;;;;;;5051586;28;20269;-72
2022/09/21 08:54:02;;;;;;;7.18;2.70;;;11.60;99.90;;;;;;5053499;28;20025;-70
2022/09/21 08:56:28;;;;;;;5.13;2.50;;;11.60;99.90;;;;;;5052479;28;20090;-70
2022/09/21 08:58:53;;;;;;;6.70;2.22;;;11.70;99.90;;;;;;5053175;28;20025;-69
2022/09/21 09:01:19;;;;;;;6.38;2.50;;;11.70;99.90;;;;;;5052946;28;20029;-71
2022/09/21 09:04:16;;;;;;;6.88;2.40;;;11.80;99.90;;;;;;5052650;28;20500;-71
2022/09/21 09:07:07;;;;;;;4.95;2.03;;;11.90;99.90;;;;;;5052950;28;20032;-70
2022/09/21 09:09:51;;;;;;;5.93;1.70;;;12.00;99.90;;;;;;5052269;28;20032;-71
2022/09/21 09:12:54;;;;;;;4.22;2.08;;;12.00;99.90;;;;;;5051464;28;20131;-68
2022/09/21 09:15:25;;;;;;;4.20;1.83;;;12.20;99.90;;;;;;5052576;28;20505;-69
2022/09/21 09:18:12;;;;;;;3.55;1.88;;;12.20;99.90;;;;;;5050870;28;20386;-70
2022/09/21 09:20:51;;;;;;;3.60;1.70;;;12.30;99.90;;;;;;5052844;28;20103;-67
2022/09/21 09:23:36;;;;;;;5.97;1.60;;;12.30;99.90;;;;;;5051817;28;20021;-68
2022/09/21 09:26:09;;;;;;;5.95;1.58;;;12.40;99.90;;;;;;5052741;28;20029;-70
2022/09/21 09:28:41;;;;;;;4.47;1.73;;;12.50;99.90;;;;;;5051330;28;20044;-71
2022/09/21 09:31:20;;;;;;;5.38;1.90;;;12.50;99.90;;;;;;5051782;28;20031;-71
2022/09/21 09:33:53;;;;;;;4.20;1.92;;;12.50;99.90;;;;;;5051147;28;20025;-70
2022/09/21 09:36:19;;;;;;;9.80;1.63;;;12.60;99.90;;;;;;5051025;28;20051;-68
2022/09/21 09:38:49;;;;;;;4.07;1.58;;;12.60;99.90;;;;;;5050446;28;20025;-70
2022/09/21 09:41:22;;;;;;;4.57;1.50;;;12.70;99.90;;;;;;5050715;28;20032;-69
2022/09/21 09:44:29;;;;;;;4.60;1.88;;;12.80;99.90;;;;;;5051338;28;20140;-69
2022/09/21 09:47:29;;;;;;;3.13;1.40;;;12.80;99.90;;;;;;5051311;28;20146;-70
2022/09/21 09:50:24;;;;;;;4.63;1.42;;;12.80;99.90;;;;;;5051979;28;20062;-67
2022/09/21 09:52:55;;;;;;;5.30;1.73;;;12.90;99.90;;;;;;5049994;28;20098;-69
2022/09/21 09:55:29;;;;;;;2.97;1.53;;;12.90;99.90;;;;;;5051917;28;20375;-67
2022/09/21 09:57:55;;;;;;;3.92;1.63;;;12.90;99.90;;;;;;5050636;28;20024;-70
2022/09/21 10:00:21;;;;;;;4.93;2.47;;;13.00;99.90;;;;;;5049733;28;20116;-69
2022/09/21 10:02:53;;;;;;;3.53;1.60;;;13.00;99.90;;;;;;5051896;28;20067;-68
2022/09/21 10:05:28;;;;;;;4.43;1.42;;;13.10;99.90;;;;;;5051648;28;20029;-69
2022/09/21 10:07:53;;;;;;;4.50;1.48;;;13.20;99.70;;;;;;5051974;28;20025;-68
2022/09/21 10:10:28;;;;;;;5.75;1.80;;;13.20;99.70;;;;;;5051782;28;20025;-68
2022/09/21 10:13:25;;;;;;;4.75;1.40;;;13.30;99.70;;;;;;5051190;28;20032;-71
2022/09/21 10:15:55;;;;;;;6.43;1.50;;;13.30;99.50;;;;;;5051749;28;20025;-70
2022/09/21 10:18:23;;;;;;;3.67;1.65;;;13.30;99.20;;;;;;5051387;28;20326;-71
2022/09/21 10:21:07;;;;;;;9.23;1.92;;;13.40;98.60;;;;;;5051126;28;20051;-71
2022/09/21 10:23:35;;;;;;;2.25;1.17;;;13.40;98.80;;;;;;5051819;28;20116;-68
2022/09/21 10:26:12;;;;;;;3.60;1.73;;;13.50;98.60;;;;;;5051764;28;20508;-68
2022/09/21 10:29:13;;;;;;;3.83;1.10;;;13.50;98.20;;;;;;5050957;28;20079;-69
2022/09/21 10:32:02;;;;;;;2.35;1.02;;;13.70;97.90;;;;;;5039572;28;20063;-67
2022/09/21 10:34:31;;;;;;;2.50;0.95;;;13.80;97.70;;;;;;5050700;28;20446;-68
2022/09/21 10:36:59;;;;;;;3.47;1.35;;;13.90;97.40;;;;;;5051829;28;20025;-68
2022/09/21 10:39:29;;;;;;;1.15;0.80;;;14.10;97.40;;;;;;5051116;28;20527;-68
2022/09/21 10:42:11;;;;;;;2.67;0.82;;;14.10;96.60;;;;;;5051576;28;20037;-72
2022/09/21 10:44:42;;;;;;;6.78;1.58;;;14.10;96.00;;;;;;5051463;28;20462;-71
2022/09/21 10:47:47;;;;;;;3.15;1.05;;;14.20;95.80;;;;;;5051333;28;20137;-68
2022/09/21 10:50:36;;;;;;;4.22;1.08;;;14.30;95.70;;;;;;5028952;28;20041;-67
2022/09/21 10:53:22;;;;;;;1.77;0.77;;;14.30;93.80;;;;;;5082496;28;20037;-67
2022/09/21 10:55:57;;;;;;;1.75;0.63;;;14.30;92.80;;;;;;5046534;28;20041;-67
2022/09/21 10:58:23;;;;;;;3.03;0.60;;;14.40;92.10;;;;;;5051775;28;20017;-66
2022/09/21 11:00:50;;;;;;;3.30;1.00;;;14.40;92.00;;;;;;5050018;28;20457;-67
2022/09/21 11:03:39;;;;;;;2.15;0.82;;;14.40;92.30;;;;;;5050914;28;20094;-66
2022/09/21 11:06:26;;;;;;;8.10;0.70;;;14.50;91.80;;;;;;5053619;28;20393;-66
2022/09/21 11:09:05;;;;;;;5.70;1.10;;;14.50;92.10;;;;;;5051585;28;20089;-66
2022/09/21 11:11:49;;;;;;;2.83;0.85;;;14.60;91.90;;;;;;5055397;28;20141;-67
2022/09/21 11:14:42;;;;;;;2.00;0.70;;;14.70;91.10;;;;;;5053161;28;20064;-68
2022/09/21 11:17:46;;;;;;;3.75;1.30;;;14.80;90.00;;;;;;5054749;28;20029;-67
2022/09/21 11:20:34;;;;;;;0.88;0.52;;;14.90;87.70;;;;;;5054987;28;20522;-66
2022/09/21 11:23:26;;;;;;;1.55;0.60;;;14.90;88.20;;;;;;5053353;28;20021;-67
2022/09/21 11:26:05;;;;;;;3.85;0.70;;;14.90;88.00;;;;;;5055058;28;20181;-66
2022/09/21 11:28:41;;;;;;;1.40;0.90;;;14.90;84.40;;;;;;5054328;28;20100;-66
2022/09/21 11:31:35;;;;;;;2.17;0.65;;;14.90;84.60;;;;;;5054625;28;20481;-68
2022/09/21 11:34:28;;;;;;;1.67;0.57;;;14.90;83.40;;;;;;5055056;28;20025;-67
2022/09/21 11:37:18;;;;;;;1.15;0.63;;;14.90;80.20;;;;;;5054717;28;20021;-69
2022/09/21 11:39:49;;;;;;;2.85;0.50;;;14.90;79.20;;;;;;5055252;28;20120;-67
2022/09/21 11:42:38;;;;;;;;;;;14.90;79.60;;;;;;5054355;28;20489;-67
2022/09/21 11:45:21;;;;;;;2.05;0.70;;;14.80;77.80;;;;;;5062553;28;20280;-68
2022/09/21 11:48:18;;;;;;;5.03;0.70;;;14.80;78.70;;;;;;5054824;28;20457;-68
2022/09/21 11:51:08;;;;;;;1.85;0.70;;;14.80;79.30;;;;;;5053759;28;20079;-68
2022/09/21 11:53:52;;;;;;;3.60;0.60;;;14.90;81.00;;;;;;5053311;28;20068;-67
2022/09/21 11:56:43;;;;;;;6.25;1.00;;;14.90;81.60;;;;;;5053658;28;20052;-67
2022/09/21 11:59:08;;;;;;;3.05;0.82;;;14.80;82.30;;;;;;5054236;28;20031;-66
2022/09/21 12:01:34;;;;;;;2.55;1.48;;;14.80;83.30;;;;;;5054240;28;20028;-67
2022/09/21 12:04:48;;;;;;;0.90;0.52;;;14.90;83.60;;;;;;5052407;28;20492;-67
2022/09/21 12:07:36;;;;;;;2.70;0.80;;;14.90;83.30;;;;;;5054019;28;20163;-68
2022/09/21 12:10:17;;;;;;;1.75;0.63;;;14.90;83.00;;;;;;5054251;28;20025;-67
2022/09/21 12:13:07;;;;;;;2.47;0.85;;;14.80;80.40;;;;;;5054299;28;20033;-68
2022/09/21 12:16:04;;;;;;;1.60;0.60;;;14.80;81.20;;;;;;5054333;28;20039;-67
2022/09/21 12:18:57;;;;;;;0.88;0.50;;;14.90;79.70;;;;;;5052031;28;20396;-67
2022/09/21 12:21:38;;;;;;;2.72;0.70;;;14.90;79.50;;;;;;5056841;28;20036;-67
2022/09/21 12:24:12;;;;;;;1.80;0.60;;;14.90;79.40;;;;;;5053403;28;20102;-70
2022/09/21 12:26:46;;;;;;;2.90;0.60;;;15.00;77.30;;;;;;5051980;28;20155;-66
2022/09/21 12:29:46;;;;;;;1.27;0.43;;;15.00;78.20;;;;;;5072385;28;20106;-69
2022/09/21 12:32:43;;;;;;;1.75;0.50;;;15.00;78.50;;;;;;5045818;28;20036;-69
2022/09/21 12:35:14;;;;;;;2.97;0.80;;;15.00;75.60;;;;;;5041176;28;20024;-69
2022/09/21 12:37:52;;;;;;;2.67;0.70;;;15.10;77.30;;;;;;5055206;28;20021;-69
2022/09/21 12:40:26;;;;;;;1.02;0.47;;;15.20;76.70;;;;;;5051654;28;20037;-70
2022/09/21 12:43:21;;;;;;;0.93;0.47;;;15.30;74.60;;;;;;5052921;28;20079;-70
2022/09/21 12:46:33;;;;;;;2.95;0.60;;;15.30;74.20;;;;;;5053171;28;20569;-68
2022/09/21 12:49:02;;;;;;;1.23;0.88;;;15.40;71.50;;;;;;5039207;28;20041;-70
2022/09/21 12:51:35;;;;;;;2.97;1.02;;;15.40;73.50;;;;;;5050809;28;20043;-67
2022/09/21 12:54:19;;;;;;;3.80;1.00;;;15.50;73.60;;;;;;5040652;28;20035;-67
2022/09/21 12:57:03;;;;;;;0.40;0.40;;;15.50;72.60;;;;;;5035942;28;20016;-65
2022/09/21 12:59:35;;;;;;;1.02;0.60;;;15.40;73.80;;;;;;5052404;28;20128;-66
2022/09/21 13:02:12;;;;;;;2.80;0.70;;;15.40;74.40;;;;;;5050099;28;20076;-66
2022/09/21 13:05:10;;;;;;;4.07;0.80;;;15.40;73.80;;;;;;5051302;28;20067;-66
2022/09/21 13:08:08;;;;;;;2.65;0.57;;;15.40;72.10;;;;;;5066220;28;20059;-69
2022/09/21 13:10:47;;;;;;;1.63;0.50;;;15.40;71.40;;;;;;5059041;28;20051;-68
2022/09/21 13:13:35;;;;;;;4.57;0.93;;;15.40;70.50;;;;;;5051517;28;20060;-67
2022/09/21 13:16:03;;;;;;;2.10;0.73;;;15.40;71.00;;;;;;5051160;28;20056;-67
2022/09/21 13:18:33;;;;;;;1.05;0.40;;;15.30;71.10;;;;;;5051677;28;20017;-69
2022/09/21 13:21:00;;;;;;;0.52;0.40;;;15.30;72.20;;;;;;5050723;28;20425;-66
2022/09/21 13:23:29;;;;;;;2.05;0.50;;;15.20;71.70;;;;;;5051512;28;20075;-67
2022/09/21 13:26:09;;;;;;;0.85;0.43;;;15.30;71.50;;;;;;5041666;28;20079;-65
2022/09/21 13:28:59;;;;;;;1.50;0.60;;;15.30;72.20;;;;;;5031623;28;20377;-67